Time;durP1;ratioP1;P1;durP2;ratioP2;P2;SDS_P1;SDS_P2;PMS_P1;PMS_P2;Temp;Humidity;BMP_temperature;BMP_pressure;BME280_temperature;BME280_humidity;BME280_pressure;Samples;Min_cycle;Max_cycle;Signal;HPM_P1;HPM_P2
2020/12/08 00:01:34;;;;;;;23.00;12.65;;;;;;;-2.17;100.00;101145.13;5035118;28;20056;-78
2020/12/08 00:03:59;;;;;;;20.08;10.77;;;;;;;-2.16;100.00;101143.34;5036600;28;20021;-79
2020/12/08 00:06:24;;;;;;;17.35;9.85;;;;;;;-2.14;100.00;101147.50;5036324;28;20479;-78
2020/12/08 00:08:50;;;;;;;28.23;15.75;;;;;;;-143.39;100.00;64013.03;5035253;28;20098;-78
2020/12/08 00:11:16;;;;;;;25.17;13.48;;;;;;;-143.39;100.00;64013.03;5035337;28;20386;-78
2020/12/08 00:13:45;;;;;;;22.33;10.70;;;;;;;-143.39;100.00;64013.03;5035983;28;20028;-79
2020/12/08 00:16:13;;;;;;;22.98;12.48;;;;;;;-143.39;100.00;64013.03;5035113;28;20045;-79
2020/12/08 00:18:39;;;;;;;26.83;13.05;;;;;;;-143.39;100.00;64013.03;5035194;28;20026;-78
2020/12/08 00:21:05;;;;;;;26.15;13.10;;;;;;;-143.39;100.00;64013.03;5036159;28;20040;-78
2020/12/08 00:23:31;;;;;;;22.80;12.10;;;;;;;-143.39;100.00;64013.03;5035708;28;20036;-78
2020/12/08 00:25:56;;;;;;;28.02;15.70;;;;;;;-143.39;100.00;64013.03;5036067;28;20386;-78
2020/12/08 00:28:23;;;;;;;21.85;10.75;;;;;;;-143.39;100.00;64013.03;5034903;28;20087;-78
2020/12/08 00:30:48;;;;;;;23.63;12.40;;;;;;;-143.39;100.00;64013.03;5035035;28;20029;-78
2020/12/08 00:33:14;;;;;;;30.00;16.08;;;;;;;-143.39;100.00;64013.03;5034894;28;20476;-78
2020/12/08 00:35:39;;;;;;;34.30;18.10;;;;;;;-143.39;100.00;64013.03;5034662;28;20043;-79
2020/12/08 00:38:05;;;;;;;29.30;13.95;;;;;;;-143.39;100.00;64013.03;5035776;28;20045;-79
2020/12/08 00:40:30;;;;;;;25.55;13.30;;;;;;;-143.39;100.00;64013.03;5035910;28;20025;-79
2020/12/08 00:42:56;;;;;;;21.95;13.68;;;;;;;-143.39;100.00;64013.03;5034762;28;20056;-79
2020/12/08 00:45:21;;;;;;;21.38;12.48;;;;;;;-143.39;100.00;64013.03;5034435;28;20052;-79
2020/12/08 00:47:47;;;;;;;23.90;11.75;;;;;;;-143.39;100.00;64013.03;5034542;28;20025;-78
2020/12/08 00:50:12;;;;;;;25.38;12.63;;;;;;;-143.39;100.00;64013.03;5034440;28;20084;-78
2020/12/08 00:52:38;;;;;;;23.73;11.95;;;;;;;-143.39;100.00;64013.03;5034458;28;20038;-79
2020/12/08 00:55:04;;;;;;;24.90;13.27;;;;;;;-143.39;100.00;64013.03;5035489;28;20100;-79
2020/12/08 00:57:29;;;;;;;24.80;11.82;;;;;;;-143.39;100.00;64013.03;5034231;28;20128;-78
2020/12/08 00:59:54;;;;;;;22.25;11.80;;;;;;;-143.39;100.00;64013.03;5035404;28;20045;-78
2020/12/08 01:02:20;;;;;;;22.50;11.73;;;;;;;-143.39;100.00;64013.03;5033854;28;20079;-77
2020/12/08 01:04:45;;;;;;;26.30;14.05;;;;;;;-143.39;100.00;64013.03;5034021;28;20060;-79
2020/12/08 01:07:11;;;;;;;27.30;12.43;;;;;;;-143.39;100.00;64013.03;5034263;28;20039;-79
2020/12/08 01:09:37;;;;;;;25.48;13.35;;;;;;;-143.39;100.00;64013.03;5033845;28;20390;-78
2020/12/08 01:12:03;;;;;;;33.97;13.25;;;;;;;-143.39;100.00;64013.03;5035140;28;20022;-78
2020/12/08 01:14:29;;;;;;;29.73;14.20;;;;;;;-143.39;100.00;64013.03;5033804;28;20033;-78
2020/12/08 01:16:59;;;;;;;27.10;14.30;;;;;;;-143.39;100.00;64013.03;5033974;28;20455;-78
2020/12/08 01:19:25;;;;;;;26.45;13.93;;;;;;;-143.39;100.00;64013.03;5033841;28;20033;-78
2020/12/08 01:21:52;;;;;;;31.17;14.65;;;;;;;-143.39;100.00;64013.03;5034909;28;20532;-79
2020/12/08 01:24:18;;;;;;;28.42;12.95;;;;;;;-143.39;100.00;64013.03;5033996;28;20378;-78
2020/12/08 01:26:43;;;;;;;23.90;13.15;;;;;;;-143.39;100.00;64013.03;5033937;28;20045;-78
2020/12/08 01:29:08;;;;;;;28.83;14.38;;;;;;;-143.39;100.00;64013.03;5033798;28;20025;-79
2020/12/08 01:31:34;;;;;;;21.23;12.43;;;;;;;-143.39;100.00;64013.03;5034590;28;20033;-78
2020/12/08 01:33:59;;;;;;;30.05;14.43;;;;;;;-143.39;100.00;64013.03;5034693;28;20060;-78
2020/12/08 01:36:25;;;;;;;24.27;11.48;;;;;;;-143.39;100.00;64013.03;5033771;28;20053;-79
2020/12/08 01:38:50;;;;;;;30.13;15.18;;;;;;;-143.39;100.00;64013.03;5034489;28;20048;-78
2020/12/08 01:41:16;;;;;;;30.15;14.18;;;;;;;-143.39;100.00;64013.03;5033607;28;20040;-79
2020/12/08 01:43:46;;;;;;;30.48;14.20;;;;;;;-143.39;100.00;64013.03;5033484;28;20037;-79
2020/12/08 01:46:17;;;;;;;35.35;15.88;;;;;;;-143.39;100.00;64013.03;5034562;28;20044;-78
2020/12/08 01:48:44;;;;;;;31.38;17.00;;;;;;;-143.39;100.00;64013.03;5033403;28;20532;-79
2020/12/08 01:51:10;;;;;;;35.53;15.13;;;;;;;-143.39;100.00;64013.03;5034378;28;20060;-78
2020/12/08 01:53:35;;;;;;;28.85;14.52;;;;;;;-143.39;100.00;64013.03;5033221;28;20482;-79
2020/12/08 01:56:01;;;;;;;27.20;14.73;;;;;;;-143.39;100.00;64013.03;5033324;28;20033;-79
2020/12/08 01:58:26;;;;;;;28.63;12.07;;;;;;;-143.39;100.00;64013.03;5034230;28;20375;-79
2020/12/08 02:00:51;;;;;;;45.10;18.50;;;;;;;-143.39;100.00;64013.03;5032982;28;20060;-78
2020/12/08 02:03:17;;;;;;;41.72;18.02;;;;;;;-143.39;100.00;64013.03;5033048;28;20060;-79
2020/12/08 02:05:44;;;;;;;30.67;15.77;;;;;;;-143.39;100.00;64013.03;5033019;28;20028;-78
2020/12/08 02:08:09;;;;;;;34.72;14.50;;;;;;;-143.39;100.00;64013.03;5032980;28;20033;-79
2020/12/08 02:10:35;;;;;;;29.75;14.93;;;;;;;-143.39;100.00;64013.03;5032739;28;20102;-78
2020/12/08 02:13:05;;;;;;;35.00;17.70;;;;;;;-143.39;100.00;64013.03;5033077;28;20041;-78
2020/12/08 02:15:31;;;;;;;30.80;16.45;;;;;;;-143.39;100.00;64013.03;5032870;28;20056;-79
2020/12/08 02:17:57;;;;;;;38.38;17.42;;;;;;;-143.39;100.00;64013.03;5033869;28;20033;-78
2020/12/08 02:20:26;;;;;;;33.13;15.65;;;;;;;-143.39;100.00;64013.03;5032900;28;20044;-78
2020/12/08 02:22:57;;;;;;;40.17;18.25;;;;;;;-143.39;100.00;64013.03;5033117;28;20072;-78
2020/12/08 02:25:23;;;;;;;31.75;15.70;;;;;;;-143.39;100.00;64013.03;5032746;28;20033;-78
2020/12/08 02:27:48;;;;;;;40.97;20.25;;;;;;;-143.39;100.00;64013.03;5033296;28;20158;-79
2020/12/08 02:30:14;;;;;;;28.48;14.43;;;;;;;-143.39;100.00;64013.03;5032685;28;20478;-79
2020/12/08 02:32:40;;;;;;;40.30;18.88;;;;;;;-143.39;100.00;64013.03;5032716;28;20040;-79
2020/12/08 02:35:06;;;;;;;49.53;21.35;;;;;;;-143.39;100.00;64013.03;5033637;28;20037;-79
2020/12/08 02:37:31;;;;;;;36.42;16.52;;;;;;;-143.39;100.00;64013.03;5033257;28;20445;-78
2020/12/08 02:39:56;;;;;;;36.67;18.40;;;;;;;-143.39;100.00;64013.03;5031983;28;20079;-79
2020/12/08 02:42:22;;;;;;;68.28;27.40;;;;;;;-143.39;100.00;64013.03;5017375;28;20087;-79
2020/12/08 02:44:47;;;;;;;58.65;27.15;;;;;;;-143.39;100.00;64013.03;5030668;28;20036;-79
2020/12/08 02:47:12;;;;;;;49.55;22.45;;;;;;;-143.39;100.00;64013.03;5032959;28;20116;-78
2020/12/08 02:49:38;;;;;;;81.07;36.50;;;;;;;-143.39;100.00;64013.03;5032791;28;20021;-79
2020/12/08 02:52:03;;;;;;;42.28;18.30;;;;;;;-143.39;100.00;64013.03;5031987;28;20398;-79
2020/12/08 02:54:29;;;;;;;59.13;24.70;;;;;;;-143.39;100.00;64013.03;5032115;28;20084;-79
2020/12/08 02:56:54;;;;;;;69.90;28.35;;;;;;;-143.39;100.00;64013.03;5032013;28;20156;-79
2020/12/08 02:59:20;;;;;;;42.65;19.42;;;;;;;-143.39;100.00;64013.03;5032215;28;20029;-79
2020/12/08 03:01:45;;;;;;;58.22;29.13;;;;;;;-143.39;100.00;64013.03;5030350;28;20741;-79
2020/12/08 03:04:10;;;;;;;27.73;13.18;;;;;;;-143.39;100.00;64013.03;5032656;28;20037;-79
2020/12/08 03:06:41;;;;;;;27.30;12.55;;;;;;;-143.39;100.00;64013.03;5033241;28;20025;-78
2020/12/08 03:09:07;;;;;;;22.95;12.25;;;;;;;-143.39;100.00;64013.03;5032199;28;20065;-78
2020/12/08 03:11:32;;;;;;;27.63;12.60;;;;;;;-143.39;100.00;64013.03;5033413;28;20053;-79
2020/12/08 03:13:58;;;;;;;26.88;13.18;;;;;;;-143.39;100.00;64013.03;5027083;28;20041;-79
2020/12/08 03:16:23;;;;;;;23.80;12.23;;;;;;;-143.39;100.00;64013.03;5012957;28;20028;-79
2020/12/08 03:18:49;;;;;;;44.42;20.17;;;;;;;-143.39;100.00;64013.03;5013533;28;20455;-79
2020/12/08 03:21:14;;;;;;;37.92;18.30;;;;;;;-143.39;100.00;64013.03;5012376;28;20033;-79
2020/12/08 03:23:40;;;;;;;45.22;18.65;;;;;;;-143.39;100.00;64013.03;5011836;28;20029;-79
2020/12/08 03:26:06;;;;;;;47.92;19.77;;;;;;;-143.39;100.00;64013.03;5013305;28;20053;-78
2020/12/08 03:28:31;;;;;;;50.33;25.15;;;;;;;-143.39;100.00;64013.03;5030201;28;20412;-78
2020/12/08 03:30:57;;;;;;;77.55;35.80;;;;;;;-143.39;100.00;64013.03;5036070;28;20120;-79
2020/12/08 03:33:22;;;;;;;62.13;30.63;;;;;;;-143.39;100.00;64013.03;5035698;28;20040;-79
2020/12/08 03:35:47;;;;;;;49.83;23.30;;;;;;;-143.39;100.00;64013.03;5036917;28;20057;-79
2020/12/08 03:38:13;;;;;;;54.05;23.55;;;;;;;-143.39;100.00;64013.03;5036726;28;20044;-78
2020/12/08 03:40:39;;;;;;;52.10;24.88;;;;;;;-143.39;100.00;64013.03;5036262;28;20033;-79
2020/12/08 03:43:05;;;;;;;47.47;21.33;;;;;;;-143.39;100.00;64013.03;5035817;28;20120;-79
2020/12/08 03:45:30;;;;;;;32.47;15.35;;;;;;;-143.39;100.00;64013.03;5036789;28;20112;-78
2020/12/08 03:47:55;;;;;;;25.10;11.75;;;;;;;-143.39;100.00;64013.03;5035690;28;20128;-79
2020/12/08 03:50:21;;;;;;;30.92;14.23;;;;;;;-143.39;100.00;64013.03;5035742;28;20037;-78
2020/12/08 03:52:46;;;;;;;52.97;20.27;;;;;;;-143.39;100.00;64013.03;5035415;28;20033;-78
2020/12/08 03:55:11;;;;;;;34.97;15.77;;;;;;;-143.39;100.00;64013.03;5036493;28;20385;-78
2020/12/08 03:57:37;;;;;;;27.95;14.43;;;;;;;-143.39;100.00;64013.03;5035510;28;20401;-78
2020/12/08 04:00:08;;;;;;;32.78;16.17;;;;;;;-143.39;100.00;64013.03;5036373;28;20025;-79
2020/12/08 04:02:34;;;;;;;32.35;16.10;;;;;;;-143.39;100.00;64013.03;5035978;28;20050;-79
2020/12/08 04:04:59;;;;;;;33.80;17.33;;;;;;;-143.39;100.00;64013.03;5035434;28;20029;-78
2020/12/08 04:07:25;;;;;;;32.78;17.27;;;;;;;-143.39;100.00;64013.03;5035379;28;20024;-79
2020/12/08 04:09:50;;;;;;;32.83;15.77;;;;;;;-143.39;100.00;64013.03;5035172;28;20029;-79
2020/12/08 04:12:16;;;;;;;29.88;15.65;;;;;;;-143.39;100.00;64013.03;5035267;28;20025;-79
2020/12/08 04:14:41;;;;;;;30.60;16.92;;;;;;;-143.39;100.00;64013.03;5035960;28;20021;-79
2020/12/08 04:17:06;;;;;;;31.55;17.67;;;;;;;-143.39;100.00;64013.03;5035339;28;20045;-79
2020/12/08 04:19:32;;;;;;;35.53;18.50;;;;;;;-143.39;100.00;64013.03;5035185;28;20021;-79
2020/12/08 04:22:01;;;;;;;66.15;31.35;;;;;;;-143.39;100.00;64013.03;5010413;28;20477;-79
2020/12/08 04:25:04;;;;;;;41.35;22.25;;;;;;;;;;4804056;28;20408;-79
2020/12/08 04:27:29;;;;;;;39.90;22.13;;;;;;;;;;4819807;28;20056;-79
2020/12/08 04:30:18;;;;;;;45.55;23.05;;;;;;;;;;4865891;27;20372;-79
2020/12/08 04:32:43;;;;;;;34.20;18.02;;;;;;;;;;4947084;28;20041;-79
2020/12/08 04:35:08;;;;;;;32.53;15.70;;;;;;;;;;5006626;28;20440;-79
2020/12/08 04:37:33;;;;;;;41.80;21.42;;;;;;;;;;4991057;28;20018;-79
2020/12/08 04:39:59;;;;;;;44.30;22.80;;;;;;;;;;5022870;28;20081;-79
2020/12/08 04:42:24;;;;;;;48.67;22.92;;;;;;;;;;4989960;28;20118;-79
2020/12/08 04:44:50;;;;;;;63.70;28.88;;;;;;;;;;4991461;28;20077;-79
2020/12/08 04:47:20;;;;;;;87.13;33.33;;;;;;;;;;4986737;28;20031;-79
2020/12/08 04:49:47;;;;;;;69.40;28.50;;;;;;;;;;4998323;28;20034;-79
2020/12/08 04:52:13;;;;;;;106.18;35.92;;;;;;;;;;4989934;28;20023;-79
2020/12/08 04:54:40;;;;;;;102.20;35.17;;;;;;;;;;4990766;28;20022;-79
2020/12/08 04:57:05;;;;;;;82.78;28.65;;;;;;;;;;4990967;28;20447;-79
2020/12/08 04:59:31;;;;;;;52.78;24.30;;;;;;;;;;5006192;28;20089;-78
2020/12/08 05:02:01;;;;;;;71.40;25.88;;;;;;;;;;4990368;28;20094;-79
2020/12/08 05:04:26;;;;;;;86.53;30.00;;;;;;;;;;4988263;28;20117;-79
2020/12/08 05:07:04;;;;;;;66.75;27.80;;;;;;;;;;4989733;28;20117;-79
2020/12/08 05:09:30;;;;;;;56.67;23.45;;;;;;;;;;4989502;28;20066;-80
2020/12/08 05:12:01;;;;;;;61.03;24.77;;;;;;;;;;5006029;28;20050;-80
2020/12/08 05:14:26;;;;;;;59.72;24.65;;;;;;;;;;4990426;28;20022;-79
2020/12/08 05:17:02;;;;;;;73.32;27.38;;;;;;;;;;5005764;28;20022;-79
2020/12/08 05:19:27;;;;;;;165.63;59.05;;;;;;;;;;4990619;28;20033;-79
2020/12/08 05:21:52;;;;;;;128.75;46.85;;;;;;;;;;4990577;28;20102;-79
2020/12/08 05:24:30;;;;;;;96.22;36.25;;;;;;;;;;4990155;28;20030;-79
2020/12/08 05:26:58;;;;;;;137.95;64.10;;;;;;;;;;4976441;28;20105;-78
2020/12/08 05:29:24;;;;;;;94.78;49.25;;;;;;;;;;4994606;28;20201;-79
2020/12/08 05:31:50;;;;;;;66.57;35.30;;;;;;;;;;4990172;28;20101;-79
2020/12/08 05:34:19;;;;;;;37.85;22.70;;;;;;;;;;4990093;28;20165;-79
2020/12/08 05:36:49;;;;;;;40.40;21.33;;;;;;;;;;4990348;28;20019;-79
2020/12/08 05:39:16;;;;;;;66.30;38.35;;;;;;;;;;4990126;28;20080;-79
2020/12/08 05:41:42;;;;;;;82.43;48.03;;;;;;;;;;4977212;28;20022;-79
2020/12/08 05:44:08;;;;;;;68.10;35.60;;;;;;;;;;5008688;28;20026;-79
2020/12/08 05:46:39;;;;;;;66.22;37.17;;;;;;;;;;5006310;28;20085;-80
2020/12/08 05:49:04;;;;;;;57.78;33.08;;;;;;;;;;4977140;28;20063;-79
2020/12/08 05:51:30;;;;;;;46.03;23.98;;;;;;;;;;4992067;28;20472;-80
2020/12/08 05:53:56;;;;;;;29.48;17.33;;;;;;;;;;4992200;28;20499;-78
2020/12/08 05:56:21;;;;;;;19.67;12.13;;;;;;;;;;4992021;28;20023;-79
2020/12/08 05:58:53;;;;;;;71.47;38.78;;;;;;;;;;4992128;28;20023;-79
2020/12/08 06:01:18;;;;;;;29.52;17.52;;;;;;;;;;4976715;28;20026;-79
2020/12/08 06:03:52;;;;;;;41.80;22.90;;;;;;;;;;4969075;28;20451;-79
2020/12/08 06:06:17;;;;;;;34.47;18.13;;;;;;;;;;4957309;28;20472;-79
2020/12/08 06:08:42;;;;;;;44.95;23.60;;;;;;;;;;4956666;28;20019;-79
2020/12/08 06:11:08;;;;;;;43.08;19.05;;;;;;;;;;4956888;28;20584;-79
2020/12/08 06:13:33;;;;;;;120.28;36.58;;;;;;;;;;4972350;28;20019;-79
2020/12/08 06:16:00;;;;;;;133.88;43.30;;;;;;;;;;4971928;28;20027;-79
2020/12/08 06:18:32;;;;;;;157.50;45.03;;;;;;;;;;4972207;28;20385;-79
2020/12/08 06:20:58;;;;;;;77.90;27.90;;;;;;;;;;4972161;28;20117;-79
2020/12/08 06:23:24;;;;;;;26.38;13.20;;;;;;;;;;4971612;28;20062;-79
2020/12/08 06:25:56;;;;;;;20.58;10.88;;;;;;;;;;4957128;28;20117;-79
2020/12/08 06:28:22;;;;;;;;;;;;;;;;;;4972840;28;20043;-79
2020/12/08 06:30:48;;;;;;;15.48;9.80;;;;;;;;;;4961113;28;19910;-79
2020/12/08 06:33:13;;;;;;;21.08;12.85;;;;;;;;;;4984160;28;20030;-79
2020/12/08 06:35:38;;;;;;;34.58;18.55;;;;;;;;;;4956829;28;20483;-79
2020/12/08 06:38:03;;;;;;;24.05;13.15;;;;;;;;;;4971586;28;20078;-79
2020/12/08 06:40:29;;;;;;;27.13;14.73;;;;;;;;;;4971675;28;20019;-79
2020/12/08 06:42:55;;;;;;;33.17;16.88;;;;;;;;;;4971906;28;20054;-79
2020/12/08 06:45:21;;;;;;;29.27;14.15;;;;;;;;;;4956039;28;20093;-80
2020/12/08 06:47:47;;;;;;;52.40;23.85;;;;;;;;;;4945594;28;20406;-78
2020/12/08 06:50:25;;;;;;;42.80;20.67;;;;;;;;;;4979726;28;20019;-79
2020/12/08 06:52:51;;;;;;;46.78;24.08;;;;;;;;;;4958936;28;20471;-79
2020/12/08 06:55:16;;;;;;;44.75;23.52;;;;;;;;;;4988632;28;20372;-79
2020/12/08 06:57:42;;;;;;;95.63;40.83;;;;;;;;;;4989799;28;20018;-79
2020/12/08 07:00:08;;;;;;;390.33;137.15;;;;;;;;;;4975131;28;20058;-79
2020/12/08 07:02:48;;;;;;;174.30;64.75;;;;;;;;;;4989871;28;20105;-79
2020/12/08 07:05:14;;;;;;;429.60;158.77;;;;;;;;;;4975033;28;20490;-79
2020/12/08 07:07:42;;;;;;;267.13;94.45;;;;;;;;;;4976628;28;20039;-79
2020/12/08 07:10:07;;;;;;;185.85;73.65;;;;;;;;;;4975524;28;20023;-79
2020/12/08 07:15:30;;;;;;;48.00;23.05;;;;;;;1.44;100.00;101249.31;4935077;28;21049;-78
2020/12/08 07:17:56;;;;;;;38.88;18.00;;;;;;;5.22;88.68;101242.25;4977665;28;20034;-78
2020/12/08 07:20:23;;;;;;;41.92;23.83;;;;;;;5.57;81.19;101245.69;5006579;28;20061;-78
2020/12/08 07:22:49;;;;;;;37.10;18.17;;;;;;;5.57;76.50;101250.13;5011041;28;20041;-79
2020/12/08 07:25:16;;;;;;;33.00;19.48;;;;;;;3.77;77.36;101259.41;5000948;28;20027;-78
2020/12/08 07:27:45;;;;;;;33.08;20.13;;;;;;;0.20;94.89;101265.84;5002517;28;20018;-78
2020/12/08 07:30:11;;;;;;;39.67;22.80;;;;;;;-0.46;100.00;101271.09;4976945;28;20081;-79
2020/12/08 07:32:37;;;;;;;46.75;25.40;;;;;;;-0.31;100.00;101262.06;4990418;28;20092;-78
2020/12/08 07:35:03;;;;;;;53.35;26.60;;;;;;;-0.76;100.00;101272.53;4990194;28;20027;-79
2020/12/08 07:37:37;;;;;;;52.53;28.48;;;;;;;-0.75;100.00;101262.97;4986723;28;20053;-78
2020/12/08 07:40:10;;;;;;;59.50;28.15;;;;;;;-0.76;100.00;101266.50;4989456;28;20065;-79
2020/12/08 07:42:45;;;;;;;56.45;26.30;;;;;;;-0.96;100.00;101262.84;5002526;28;20029;-79
2020/12/08 07:45:11;;;;;;;57.88;28.58;;;;;;;-0.56;100.00;101265.78;5005710;28;20023;-78
2020/12/08 07:47:36;;;;;;;66.15;34.13;;;;;;;-0.81;100.00;101264.25;5005819;28;20081;-78
2020/12/08 07:50:04;;;;;;;66.57;31.63;;;;;;;-0.82;100.00;101277.41;5005910;28;20030;-78
2020/12/08 07:52:29;;;;;;;65.95;33.53;;;;;;;-0.79;100.00;101271.97;4994117;28;20030;-78
2020/12/08 07:54:55;;;;;;;69.10;32.33;;;;;;;-0.74;100.00;101275.03;5006073;28;20486;-80
2020/12/08 07:57:20;;;;;;;68.82;32.58;;;;;;;-0.82;100.00;101274.81;4995060;28;20415;-78
2020/12/08 07:59:46;;;;;;;66.07;30.50;;;;;;;-0.53;100.00;101275.97;5006100;28;20034;-79
2020/12/08 08:02:11;;;;;;;70.75;31.42;;;;;;;-0.84;100.00;101282.75;5001336;28;20062;-79
2020/12/08 08:04:37;;;;;;;62.60;29.60;;;;;;;-0.79;100.00;101280.59;4971217;28;20475;-78
2020/12/08 08:07:02;;;;;;;63.08;28.88;;;;;;;0.08;100.00;101272.88;4986364;28;20023;-79
2020/12/08 08:09:28;;;;;;;63.97;28.13;;;;;;;0.84;96.94;101277.97;4871551;28;20049;-78
2020/12/08 08:11:53;;;;;;;57.65;26.92;;;;;;;-0.40;100.00;101285.47;5007872;28;20040;-80
2020/12/08 08:14:20;;;;;;;65.25;28.60;;;;;;;-0.46;100.00;101286.78;5025251;28;20049;-76
2020/12/08 08:16:47;;;;;;;63.17;29.25;;;;;;;-0.33;100.00;101292.69;5010088;28;20025;-79
2020/12/08 08:19:12;;;;;;;62.03;27.95;;;;;;;-0.31;100.00;101300.41;5010212;28;20382;-79
2020/12/08 08:21:38;;;;;;;51.80;26.35;;;;;;;-0.42;100.00;101293.44;5021182;28;20030;-77
2020/12/08 08:24:03;;;;;;;63.58;29.33;;;;;;;-0.65;100.00;101294.38;4996417;28;20018;-79
2020/12/08 08:26:28;;;;;;;63.65;31.13;;;;;;;-0.30;100.00;101296.84;4980314;28;20361;-78
2020/12/08 08:28:54;;;;;;;53.45;27.02;;;;;;;-0.39;100.00;101300.16;4991791;28;20080;-77
2020/12/08 08:31:19;;;;;;;59.03;27.83;;;;;;;-0.43;100.00;101299.56;4991529;28;20062;-79
2020/12/08 08:33:45;;;;;;;48.90;23.02;;;;;;;-0.67;100.00;101304.09;4976660;28;20035;-77
2020/12/08 08:36:10;;;;;;;44.13;21.40;;;;;;;-0.53;100.00;101299.47;4991918;28;20038;-79
2020/12/08 08:38:36;;;;;;;40.40;18.58;;;;;;;-0.61;100.00;101306.22;4968923;28;20089;-79
2020/12/08 08:41:01;;;;;;;41.67;19.08;;;;;;;-0.67;100.00;101306.69;4988542;28;20026;-78
2020/12/08 08:43:27;;;;;;;34.17;15.88;;;;;;;-0.73;100.00;101310.63;4972304;28;20037;-79
2020/12/08 08:45:54;;;;;;;40.55;17.13;;;;;;;-0.62;100.00;101308.00;4973434;28;20082;-79
2020/12/08 08:48:22;;;;;;;26.98;13.15;;;;;;;-0.76;100.00;101308.25;4988578;28;20045;-78
2020/12/08 08:50:48;;;;;;;25.13;11.75;;;;;;;-0.77;100.00;101304.81;4771599;28;20499;-77
2020/12/08 08:53:15;;;;;;;26.25;12.82;;;;;;;-0.68;100.00;101300.66;4972870;28;20153;-77
2020/12/08 08:55:40;;;;;;;27.23;12.77;;;;;;;-0.77;100.00;101307.41;4972321;28;20480;-79
2020/12/08 08:58:06;;;;;;;28.85;13.18;;;;;;;-0.74;100.00;101303.75;4973304;28;20034;-79
2020/12/08 09:00:31;;;;;;;27.83;13.02;;;;;;;-0.86;100.00;101296.88;4972816;28;20035;-77
2020/12/08 09:02:58;;;;;;;26.70;13.13;;;;;;;-0.73;100.00;101294.97;4974984;28;20526;-76
2020/12/08 09:05:25;;;;;;;28.75;14.23;;;;;;;-0.76;100.00;101296.03;4917757;28;20050;-77
2020/12/08 09:07:50;;;;;;;28.00;14.18;;;;;;;-0.61;100.00;101303.63;4986971;28;20130;-76
2020/12/08 09:10:15;;;;;;;26.85;13.82;;;;;;;-0.71;100.00;101293.91;4970489;28;20129;-78
2020/12/08 09:12:41;;;;;;;31.45;14.10;;;;;;;-0.56;100.00;101291.88;4983714;28;20039;-78
2020/12/08 09:15:08;;;;;;;30.15;14.10;;;;;;;-0.58;100.00;101283.34;4983050;28;20061;-76
2020/12/08 09:17:33;;;;;;;25.15;12.82;;;;;;;-0.62;100.00;101287.13;4983439;28;20031;-77
2020/12/08 09:19:59;;;;;;;30.45;15.00;;;;;;;-0.52;100.00;101284.63;4971724;28;20049;-77
2020/12/08 09:22:24;;;;;;;31.15;15.52;;;;;;;-0.44;100.00;101294.50;4970391;28;20089;-77
2020/12/08 09:24:50;;;;;;;29.90;14.05;;;;;;;-0.43;100.00;101290.91;4973379;28;20038;-77
2020/12/08 09:27:16;;;;;;;29.98;13.43;;;;;;;-0.37;100.00;101287.81;5001700;28;20105;-80
2020/12/08 09:29:42;;;;;;;25.48;12.07;;;;;;;-0.43;100.00;101291.75;4985201;28;20435;-80
2020/12/08 09:32:07;;;;;;;24.80;12.27;;;;;;;-0.33;100.00;101291.88;4987569;28;20050;-79
2020/12/08 09:34:33;;;;;;;28.88;14.93;;;;;;;-0.22;100.00;101294.44;4970539;28;20066;-78
2020/12/08 09:36:59;;;;;;;18.55;8.90;;;;;;;-0.42;100.00;101297.78;4986808;28;20077;-79
2020/12/08 09:39:25;;;;;;;21.25;9.70;;;;;;;-0.48;100.00;101297.34;4973240;28;20452;-77
2020/12/08 09:41:50;;;;;;;20.58;10.23;;;;;;;-0.38;100.00;101299.22;4970420;28;20038;-79
2020/12/08 09:44:16;;;;;;;16.88;9.82;;;;;;;-0.50;100.00;101306.22;4985750;28;20114;-78
2020/12/08 09:46:43;;;;;;;18.95;9.75;;;;;;;-0.61;100.00;101309.66;4975162;28;20614;-77
2020/12/08 09:49:09;;;;;;;24.38;11.05;;;;;;;-0.65;100.00;101310.84;4971120;28;20035;-78
2020/12/08 09:51:35;;;;;;;23.05;12.80;;;;;;;-0.29;100.00;101312.38;4973649;28;20031;-76
2020/12/08 09:54:00;;;;;;;24.60;13.27;;;;;;;-0.29;100.00;101314.16;4970191;28;20027;-78
2020/12/08 09:56:26;;;;;;;17.40;8.77;;;;;;;-0.32;100.00;101315.22;4985864;28;20042;-79
2020/12/08 09:58:54;;;;;;;20.05;9.65;;;;;;;-0.32;100.00;101315.22;5001715;28;20030;-79
2020/12/08 10:01:27;;;;;;;15.50;7.72;;;;;;;0.07;100.00;101318.25;4972156;28;20034;-79
2020/12/08 10:03:53;;;;;;;12.48;6.88;;;;;;;-0.32;100.00;101309.19;4986531;28;20383;-77
2020/12/08 10:06:20;;;;;;;19.10;9.75;;;;;;;0.59;100.00;101314.00;4972580;28;20042;-80
2020/12/08 10:08:45;;;;;;;12.88;6.50;;;;;;;-0.17;100.00;101321.03;4971771;28;20106;-79
2020/12/08 10:11:13;;;;;;;10.73;6.00;;;;;;;-0.09;100.00;101318.66;4984618;28;20029;-78
2020/12/08 10:13:38;;;;;;;17.05;8.63;;;;;;;0.02;100.00;101320.38;4999964;28;20054;-79
2020/12/08 10:16:04;;;;;;;15.02;8.15;;;;;;;0.54;100.00;101324.00;4971680;28;20507;-79
2020/12/08 10:18:29;;;;;;;8.85;5.22;;;;;;;0.29;100.00;101321.75;4971916;28;20051;-77
2020/12/08 10:20:55;;;;;;;16.63;7.10;;;;;;;0.21;100.00;101327.56;4970875;28;20387;-79
2020/12/08 10:23:20;;;;;;;14.68;8.35;;;;;;;0.01;100.00;101321.34;4969340;28;20129;-80
2020/12/08 10:25:45;;;;;;;20.38;10.45;;;;;;;-0.60;100.00;101327.00;5002883;28;20464;-79
2020/12/08 10:28:11;;;;;;;27.40;16.02;;;;;;;-0.74;100.00;101322.84;4972138;28;20027;-80
2020/12/08 10:30:37;;;;;;;20.85;11.75;;;;;;;-0.66;100.00;101327.47;4970349;28;20042;-76
2020/12/08 10:33:03;;;;;;;32.28;15.32;;;;;;;-0.67;100.00;101328.41;4998869;28;20515;-79
2020/12/08 10:35:29;;;;;;;32.33;12.93;;;;;;;-0.59;100.00;101327.81;5002024;28;20031;-79
2020/12/08 10:37:55;;;;;;;29.98;14.43;;;;;;;-0.58;100.00;101332.09;4968670;28;20134;-77
2020/12/08 10:40:21;;;;;;;28.30;12.80;;;;;;;-0.47;100.00;101325.09;4969760;28;20157;-77
2020/12/08 10:42:46;;;;;;;26.83;14.30;;;;;;;-0.63;100.00;101329.03;4967383;28;20081;-76
2020/12/08 10:45:12;;;;;;;30.13;13.95;;;;;;;-0.73;100.00;101331.47;4966904;28;20103;-77
2020/12/08 10:47:37;;;;;;;34.13;15.38;;;;;;;-0.64;100.00;101322.94;4961411;28;20122;-77
2020/12/08 10:50:04;;;;;;;35.22;19.23;;;;;;;-0.49;100.00;101329.59;4969076;28;20039;-76
2020/12/08 10:52:30;;;;;;;78.97;40.58;;;;;;;-0.63;100.00;101334.25;4966582;28;20034;-78
2020/12/08 10:54:56;;;;;;;116.18;52.58;;;;;;;-0.35;100.00;101325.91;4963697;28;20031;-76
2020/12/08 10:57:21;;;;;;;59.45;27.95;;;;;;;-0.58;100.00;101332.91;4983323;28;20041;-77
2020/12/08 10:59:47;;;;;;;178.93;74.03;;;;;;;-0.77;100.00;101340.50;4968437;28;20468;-78
2020/12/08 11:02:12;;;;;;;99.28;46.45;;;;;;;-0.68;100.00;101341.59;4967093;28;20049;-78
2020/12/08 11:04:38;;;;;;;76.78;34.53;;;;;;;-0.65;100.00;101334.34;4966511;28;20033;-77
2020/12/08 11:07:03;;;;;;;107.32;52.17;;;;;;;-0.84;100.00;101345.38;4997327;28;20117;-77
2020/12/08 11:09:29;;;;;;;85.13;42.00;;;;;;;-0.63;100.00;101332.47;4963437;28;20031;-78
2020/12/08 11:11:54;;;;;;;84.43;41.85;;;;;;;-0.61;100.00;101329.72;4968548;28;20467;-77
2020/12/08 11:14:20;;;;;;;74.95;41.70;;;;;;;-0.49;100.00;101334.81;4999026;28;20753;-79
2020/12/08 11:16:46;;;;;;;64.28;30.52;;;;;;;-0.65;100.00;101343.94;4968238;28;20049;-78
2020/12/08 11:19:12;;;;;;;53.92;25.63;;;;;;;-0.70;100.00;101342.53;4966557;28;20038;-77
2020/12/08 11:21:39;;;;;;;55.53;24.60;;;;;;;-0.58;100.00;101347.75;4971072;28;20118;-78
2020/12/08 11:24:04;;;;;;;55.80;26.30;;;;;;;-0.72;100.00;101349.66;4968702;28;20108;-78
2020/12/08 11:26:31;;;;;;;45.08;21.42;;;;;;;-0.75;100.00;101351.66;4967229;28;20050;-78
2020/12/08 11:28:58;;;;;;;59.28;24.75;;;;;;;-0.70;100.00;101352.13;4971124;28;20039;-78
2020/12/08 11:31:24;;;;;;;43.42;16.42;;;;;;;0.28;100.00;101352.28;4965959;28;20065;-77
2020/12/08 11:33:50;;;;;;;51.13;24.38;;;;;;;-0.42;100.00;101350.84;4965590;28;20062;-77
2020/12/08 11:36:16;;;;;;;42.45;19.73;;;;;;;-0.50;100.00;101348.81;4981975;28;20387;-78